Portada
METAR-TAF:

METAR-TAF

Aeroports :

Knoxville, Iowa, Estats Units d'Amèrica

Knoxville Municipal Airport

latitud: 41-18N, longitud: 093-07W, altitud: 283 m

Observació

L'informe es va fer fa 15 hores i 37 minuts, a les 15:15 UTC
Vent 13 kt del Oest
Temperatura -1°C
Humitat 93%
Pressió 1015 hPa
Visibilitat: 4.8 km
Cel cobert a una alçada de 900 ft
boirina

METAR: KOXV 201515Z AUTO 27013KT 3SM BR OVC009 M01/M02 A2997 RMK AO2

Hora: 00:52 (06:52 UTC)


TAF: manca

Observacions i pronòstics meteorològics de més de 4000 aeroports (METAR i TAF).

Les estacions disponibles són els punts grocs i vermells al mapa.

Posi el ratolí al punt desitjat per veure el nom de l'estació.

Feu clic per veure les observacions i els pronòstics meteorològics.

Per canviar el mapa: feu clic els botons verds amb una creu de color negre per apropar; al botó verd amb un guió per allunyar la imatge; o en les fletxes verdes per a mapes adjacents.


METAR-TAF: